Time;durP1;ratioP1;P1;durP2;ratioP2;P2;SDS_P1;SDS_P2;PMS_P1;PMS_P2;Temp;Humidity;BMP_temperature;BMP_pressure;BME280_temperature;BME280_humidity;BME280_pressure;Samples;Min_cycle;Max_cycle;Signal;HPM_P1;HPM_P2
2020/12/17 00:00:23;;;;;;;28.20;17.95;;;4.10;99.90;;;;;;5028773;28;20456;-74
2020/12/17 00:02:49;;;;;;;37.50;24.55;;;4.10;99.90;;;;;;5036490;28;20131;-75
2020/12/17 00:05:16;;;;;;;43.45;30.70;;;4.20;99.90;;;;;;5048582;28;20489;-74
2020/12/17 00:07:42;;;;;;;56.97;34.38;;;4.20;99.90;;;;;;5046879;28;20033;-74
2020/12/17 00:10:09;;;;;;;33.58;22.25;;;4.10;99.90;;;;;;5048471;28;20025;-74
2020/12/17 00:12:40;;;;;;;30.38;21.23;;;4.10;99.90;;;;;;5046418;28;20090;-74
2020/12/17 00:15:07;;;;;;;41.67;28.10;;;4.10;99.90;;;;;;5048266;28;20481;-67
2020/12/17 00:17:42;;;;;;;35.85;24.92;;;4.10;99.90;;;;;;5043683;28;20029;-74
2020/12/17 00:20:10;;;;;;;33.05;23.58;;;4.20;99.90;;;;;;5028279;28;20404;-74
2020/12/17 00:22:37;;;;;;;32.60;22.85;;;4.20;99.90;;;;;;5027682;28;20061;-74
2020/12/17 00:25:04;;;;;;;25.77;17.48;;;4.20;99.90;;;;;;5048058;28;20060;-74
2020/12/17 00:27:30;;;;;;;43.67;28.08;;;4.20;99.90;;;;;;5033943;28;20026;-74
2020/12/17 00:29:56;;;;;;;29.02;18.73;;;4.20;99.90;;;;;;5033593;28;20032;-74
2020/12/17 00:32:22;;;;;;;28.20;17.67;;;4.20;99.90;;;;;;5046663;28;20051;-74
2020/12/17 00:34:48;;;;;;;30.00;16.48;;;4.20;99.90;;;;;;5040963;28;20021;-73
2020/12/17 00:37:13;;;;;;;21.90;11.15;;;4.10;99.90;;;;;;5031474;28;20104;-74
2020/12/17 00:39:39;;;;;;;20.38;10.30;;;4.00;99.90;;;;;;5035620;28;20029;-74
2020/12/17 00:42:05;;;;;;;18.77;10.45;;;4.00;99.90;;;;;;5043124;28;20447;-67
2020/12/17 00:44:31;;;;;;;25.02;13.98;;;3.90;99.90;;;;;;5040387;28;20041;-66
2020/12/17 00:46:57;;;;;;;26.60;16.70;;;3.90;99.90;;;;;;5033194;28;20460;-75
2020/12/17 00:49:22;;;;;;;35.72;22.70;;;4.00;99.90;;;;;;5031608;28;20033;-67
2020/12/17 00:51:48;;;;;;;31.77;22.02;;;4.00;99.90;;;;;;5029753;28;20152;-75
2020/12/17 00:54:14;;;;;;;34.70;23.65;;;4.00;99.90;;;;;;5036843;28;20033;-74
2020/12/17 00:56:46;;;;;;;27.25;17.23;;;4.00;99.90;;;;;;5042318;28;20508;-74
2020/12/17 00:59:12;;;;;;;;;;;3.90;99.90;;;;;;5032184;28;20500;-74
2020/12/17 01:01:38;;;;;;;28.73;18.25;;;3.90;99.90;;;;;;5033134;28;19955;-74
2020/12/17 01:04:03;;;;;;;26.60;18.70;;;3.90;99.90;;;;;;5033123;28;20100;-76
2020/12/17 01:06:29;;;;;;;36.53;23.13;;;3.90;99.90;;;;;;5042511;28;20037;-67
2020/12/17 01:08:54;;;;;;;39.63;24.83;;;3.90;99.90;;;;;;5036898;28;20052;-74
2020/12/17 01:11:30;;;;;;;40.03;25.00;;;3.90;99.90;;;;;;5030044;28;20124;-74
2020/12/17 01:13:58;;;;;;;33.42;22.90;;;3.90;99.90;;;;;;5027027;28;20033;-74
2020/12/17 01:16:23;;;;;;;34.45;22.95;;;3.80;99.90;;;;;;5038672;28;20055;-74
2020/12/17 01:18:49;;;;;;;39.85;26.80;;;3.90;99.90;;;;;;5040149;28;20029;-74
2020/12/17 01:21:16;;;;;;;37.83;23.52;;;3.90;99.90;;;;;;5027069;28;20029;-75
2020/12/17 01:23:42;;;;;;;35.63;23.88;;;3.90;99.90;;;;;;5033774;28;20049;-74
2020/12/17 01:26:09;;;;;;;31.27;20.35;;;3.80;99.90;;;;;;5027463;28;20045;-74
2020/12/17 01:28:36;;;;;;;32.97;19.73;;;3.80;99.90;;;;;;5025797;28;20032;-75
2020/12/17 01:31:06;;;;;;;40.63;24.55;;;3.80;99.90;;;;;;5025367;28;20586;-74
2020/12/17 01:33:32;;;;;;;40.72;25.83;;;3.90;99.90;;;;;;5028573;28;20394;-74
2020/12/17 01:36:11;;;;;;;40.13;24.10;;;3.90;99.90;;;;;;5031030;28;20037;-74
2020/12/17 01:38:38;;;;;;;31.35;20.90;;;3.90;99.90;;;;;;5040658;28;20033;-74
2020/12/17 01:41:05;;;;;;;32.60;19.35;;;3.90;99.90;;;;;;5046911;28;20045;-67
2020/12/17 01:43:42;;;;;;;32.55;18.77;;;3.90;99.90;;;;;;5042238;28;20331;-74
2020/12/17 01:46:08;;;;;;;30.85;20.25;;;3.80;99.90;;;;;;5045683;28;20052;-67
2020/12/17 01:48:35;;;;;;;36.55;22.85;;;3.70;99.90;;;;;;5038964;28;20029;-74
2020/12/17 01:51:03;;;;;;;34.92;24.50;;;3.60;99.90;;;;;;5045920;28;20052;-74
2020/12/17 01:53:28;;;;;;;35.70;22.05;;;3.50;99.90;;;;;;5033516;28;20040;-74
2020/12/17 01:56:01;;;;;;;31.48;19.58;;;3.50;99.90;;;;;;5026608;28;20041;-75
2020/12/17 01:58:31;;;;;;;29.20;18.98;;;3.40;99.90;;;;;;5029770;28;20496;-74
2020/12/17 02:00:58;;;;;;;32.55;20.45;;;3.40;99.90;;;;;;5034940;28;20033;-74
2020/12/17 02:03:24;;;;;;;36.78;22.80;;;3.50;99.90;;;;;;5032858;28;20476;-74
2020/12/17 02:05:50;;;;;;;42.50;26.85;;;3.50;99.90;;;;;;5035288;28;20076;-67
2020/12/17 02:08:20;;;;;;;50.78;32.42;;;3.60;99.90;;;;;;5031760;28;20051;-74
2020/12/17 02:10:46;;;;;;;37.85;24.48;;;3.50;99.90;;;;;;5045865;28;20407;-75
2020/12/17 02:13:12;;;;;;;43.33;27.05;;;3.50;99.90;;;;;;5043128;28;20068;-67
2020/12/17 02:15:38;;;;;;;40.80;24.23;;;3.50;99.90;;;;;;5045830;28;20044;-67
2020/12/17 02:18:04;;;;;;;42.30;25.60;;;3.50;99.90;;;;;;5045245;28;20494;-74
2020/12/17 02:20:30;;;;;;;38.70;22.20;;;3.50;99.90;;;;;;5025908;28;20149;-74
2020/12/17 02:22:56;;;;;;;39.72;23.63;;;3.50;99.90;;;;;;5025523;28;20128;-74
2020/12/17 02:25:22;;;;;;;34.45;21.85;;;3.50;99.90;;;;;;5024942;28;20048;-74
2020/12/17 02:27:47;;;;;;;34.47;21.48;;;3.50;99.90;;;;;;5025419;28;20503;-74
2020/12/17 02:30:14;;;;;;;26.90;16.67;;;3.50;99.90;;;;;;5038124;28;20100;-74
2020/12/17 02:32:39;;;;;;;31.80;20.77;;;3.40;99.90;;;;;;5044917;28;20025;-74
2020/12/17 02:35:07;;;;;;;31.27;18.13;;;3.40;99.90;;;;;;5044504;28;20409;-74
2020/12/17 02:37:34;;;;;;;33.25;18.00;;;3.40;99.90;;;;;;5028410;28;20033;-67
2020/12/17 02:40:00;;;;;;;37.47;19.92;;;3.30;99.90;;;;;;5025285;28;20038;-74
2020/12/17 02:42:26;;;;;;;27.80;16.50;;;3.40;99.90;;;;;;5037971;28;20029;-67
2020/12/17 02:44:52;;;;;;;23.70;13.98;;;3.30;99.90;;;;;;5041107;28;20036;-75
2020/12/17 02:47:17;;;;;;;34.90;17.48;;;3.30;99.90;;;;;;5036780;28;20040;-74
2020/12/17 02:49:43;;;;;;;27.05;15.52;;;3.20;99.90;;;;;;5039444;28;20029;-67
2020/12/17 02:52:09;;;;;;;26.83;15.70;;;3.10;99.90;;;;;;5026058;28;20120;-74
2020/12/17 02:54:35;;;;;;;34.35;19.15;;;3.20;99.90;;;;;;5024823;28;20033;-67
2020/12/17 02:57:00;;;;;;;26.00;14.88;;;3.20;99.90;;;;;;5040408;28;20116;-75
2020/12/17 02:59:26;;;;;;;27.15;15.45;;;3.20;99.90;;;;;;5044680;28;20037;-74
2020/12/17 03:01:52;;;;;;;24.98;14.45;;;3.10;99.90;;;;;;5030761;28;20049;-74
2020/12/17 03:04:17;;;;;;;22.13;12.88;;;3.10;99.90;;;;;;5025327;28;20480;-74
2020/12/17 03:06:43;;;;;;;24.67;14.38;;;3.10;99.90;;;;;;5024287;28;20038;-74
2020/12/17 03:09:09;;;;;;;20.73;12.25;;;3.10;99.90;;;;;;5025332;28;20026;-74
2020/12/17 03:11:34;;;;;;;20.05;13.07;;;3.10;99.90;;;;;;5031032;28;20026;-74
2020/12/17 03:14:00;;;;;;;19.33;12.07;;;3.00;99.90;;;;;;5045415;28;20033;-74
2020/12/17 03:16:26;;;;;;;18.98;11.38;;;3.00;99.90;;;;;;5043307;28;20507;-74
2020/12/17 03:18:51;;;;;;;25.42;15.05;;;3.00;99.90;;;;;;5045656;28;20033;-74
2020/12/17 03:21:17;;;;;;;20.45;11.85;;;3.00;99.90;;;;;;5041638;28;20389;-74
2020/12/17 03:23:42;;;;;;;22.10;12.93;;;2.90;99.90;;;;;;5025359;28;20022;-74
2020/12/17 03:26:08;;;;;;;21.58;12.75;;;2.90;99.90;;;;;;5027771;28;20030;-73
2020/12/17 03:28:34;;;;;;;20.10;11.88;;;2.90;99.90;;;;;;5029077;28;20028;-74
2020/12/17 03:31:00;;;;;;;25.50;13.27;;;2.80;99.90;;;;;;5027661;28;20029;-74
2020/12/17 03:33:26;;;;;;;28.20;15.05;;;2.70;99.90;;;;;;5027757;28;20033;-67
2020/12/17 03:35:51;;;;;;;27.63;15.40;;;2.90;99.90;;;;;;5033213;28;20396;-74
2020/12/17 03:38:17;;;;;;;25.02;13.40;;;2.90;99.90;;;;;;5048698;28;20033;-67
2020/12/17 03:40:43;;;;;;;21.92;13.45;;;2.80;99.90;;;;;;5045270;28;20071;-74
2020/12/17 03:43:09;;;;;;;24.38;13.88;;;2.70;99.90;;;;;;5029414;28;20033;-74
2020/12/17 03:45:35;;;;;;;26.83;14.30;;;2.80;99.90;;;;;;5028021;28;20048;-74
2020/12/17 03:48:00;;;;;;;27.55;15.00;;;2.70;99.90;;;;;;5028861;28;20029;-74
2020/12/17 03:50:26;;;;;;;26.35;16.42;;;2.70;99.90;;;;;;5028058;28;20041;-74
2020/12/17 03:52:52;;;;;;;30.25;16.70;;;2.70;99.90;;;;;;5031204;28;20088;-74
2020/12/17 03:55:18;;;;;;;39.10;21.42;;;2.70;99.90;;;;;;5044700;28;20021;-67
2020/12/17 03:57:43;;;;;;;37.95;18.80;;;2.60;99.90;;;;;;5045468;28;20032;-74
2020/12/17 04:00:09;;;;;;;37.55;17.67;;;2.70;99.90;;;;;;5035079;28;20026;-67
2020/12/17 04:02:34;;;;;;;30.23;15.85;;;2.50;99.90;;;;;;5036117;28;20044;-74
2020/12/17 04:05:00;;;;;;;31.23;17.58;;;2.50;99.90;;;;;;5040073;28;20035;-74
2020/12/17 04:07:26;;;;;;;31.48;17.10;;;2.60;99.90;;;;;;5048185;28;20357;-74
2020/12/17 04:09:52;;;;;;;28.15;15.00;;;2.60;99.90;;;;;;5045448;28;20024;-74
2020/12/17 04:12:17;;;;;;;29.65;14.13;;;2.60;99.90;;;;;;5048360;28;20044;-74
2020/12/17 04:14:43;;;;;;;25.75;14.27;;;2.60;99.90;;;;;;5043198;28;20032;-74
2020/12/17 04:17:09;;;;;;;28.20;15.68;;;2.60;99.90;;;;;;5028405;28;20073;-66
2020/12/17 04:19:34;;;;;;;30.42;16.90;;;2.50;99.90;;;;;;5026221;28;20468;-74
2020/12/17 04:22:00;;;;;;;26.45;14.60;;;2.60;99.90;;;;;;5028598;28;20128;-66
2020/12/17 04:24:25;;;;;;;24.27;14.15;;;2.60;99.90;;;;;;5026114;28;20575;-74
2020/12/17 04:26:52;;;;;;;26.58;14.27;;;2.60;99.90;;;;;;5026825;28;20103;-73
2020/12/17 04:29:18;;;;;;;30.52;15.90;;;2.60;99.90;;;;;;5030921;28;20025;-74
2020/12/17 04:31:45;;;;;;;28.52;15.00;;;2.60;99.90;;;;;;5048478;28;20041;-74
2020/12/17 04:34:10;;;;;;;24.35;13.30;;;2.40;99.90;;;;;;5038241;28;20018;-74
2020/12/17 04:36:36;;;;;;;25.70;14.38;;;2.50;99.90;;;;;;5026755;28;20812;-74
2020/12/17 04:39:03;;;;;;;25.10;14.52;;;2.40;99.90;;;;;;5032595;28;20029;-67
2020/12/17 04:41:31;;;;;;;26.58;12.80;;;2.40;99.90;;;;;;5047432;28;20037;-74
2020/12/17 04:43:57;;;;;;;30.67;16.88;;;2.40;99.90;;;;;;5042631;28;20024;-66
2020/12/17 04:46:25;;;;;;;31.75;15.98;;;2.40;99.90;;;;;;5027860;28;20092;-74
2020/12/17 04:48:52;;;;;;;35.28;18.42;;;2.40;99.90;;;;;;5026389;28;20076;-67
2020/12/17 04:51:19;;;;;;;35.05;18.52;;;2.40;99.90;;;;;;5026325;28;20069;-74
2020/12/17 04:53:48;;;;;;;43.38;20.92;;;2.40;99.90;;;;;;5027676;28;20028;-74
2020/12/17 04:56:14;;;;;;;33.90;18.40;;;2.40;99.90;;;;;;5027973;28;20040;-74
2020/12/17 04:58:47;;;;;;;31.15;16.90;;;2.40;99.90;;;;;;5027604;28;20440;-74
2020/12/17 05:01:16;;;;;;;;;;;2.30;99.90;;;;;;5038646;28;20099;-67
2020/12/17 05:03:45;;;;;;;24.10;13.98;;;2.30;99.90;;;;;;5024085;28;19920;-74
2020/12/17 05:06:17;;;;;;;13.73;7.88;;;2.20;99.90;;;;;;5023124;28;20034;-74
2020/12/17 05:08:43;;;;;;;16.00;8.85;;;2.40;99.90;;;;;;5034388;28;20099;-74
2020/12/17 05:11:09;;;;;;;21.85;12.15;;;2.60;99.90;;;;;;5028930;28;20035;-74
2020/12/17 05:13:34;;;;;;;38.53;24.55;;;2.60;99.90;;;;;;5028042;28;20025;-74
2020/12/17 05:16:00;;;;;;;44.30;26.60;;;2.60;99.90;;;;;;5041451;28;20037;-67
2020/12/17 05:18:25;;;;;;;36.58;23.83;;;2.60;99.90;;;;;;5045181;28;20043;-67
2020/12/17 05:20:51;;;;;;;38.72;25.23;;;2.60;99.90;;;;;;5029539;28;20112;-74
2020/12/17 05:23:18;;;;;;;37.90;24.40;;;2.60;99.90;;;;;;5026766;28;20037;-74
2020/12/17 05:25:44;;;;;;;35.25;18.30;;;2.60;99.90;;;;;;5025653;28;20057;-74
2020/12/17 05:28:13;;;;;;;25.45;15.27;;;2.60;99.90;;;;;;5026795;28;20072;-74
2020/12/17 05:30:39;;;;;;;35.85;23.83;;;2.60;99.90;;;;;;5025261;28;20029;-74
2020/12/17 05:33:04;;;;;;;34.58;22.40;;;2.70;99.90;;;;;;5027269;28;20040;-74
2020/12/17 05:35:35;;;;;;;31.83;19.13;;;2.70;99.90;;;;;;5025389;28;20034;-67
2020/12/17 05:38:07;;;;;;;23.80;15.15;;;2.70;99.90;;;;;;5026490;28;20033;-74
2020/12/17 05:40:43;;;;;;;21.10;11.90;;;2.70;99.90;;;;;;5032446;28;20037;-74
2020/12/17 05:43:10;;;;;;;23.92;12.75;;;2.60;99.90;;;;;;5045694;28;20041;-74
2020/12/17 05:45:36;;;;;;;21.52;10.55;;;2.70;99.90;;;;;;5024601;28;20035;-74
2020/12/17 05:48:11;;;;;;;19.08;10.70;;;2.70;99.90;;;;;;5045305;28;20036;-74
2020/12/17 05:51:01;;;;;;;21.33;10.45;;;2.70;99.90;;;;;;5044018;28;20082;-74
2020/12/17 05:53:31;;;;;;;20.25;10.27;;;2.70;99.90;;;;;;5046290;28;20029;-72
2020/12/17 05:56:08;;;;;;;22.20;10.98;;;2.80;99.90;;;;;;5044677;28;20037;-74
2020/12/17 05:58:38;;;;;;;23.48;11.95;;;2.80;99.90;;;;;;5045182;28;20029;-74
2020/12/17 06:01:08;;;;;;;22.13;11.98;;;2.80;99.90;;;;;;5038148;28;20033;-66
2020/12/17 06:03:34;;;;;;;27.50;13.57;;;2.80;99.90;;;;;;5026244;28;20033;-74
2020/12/17 06:06:04;;;;;;;22.17;11.82;;;2.90;99.90;;;;;;5024953;28;20036;-74
2020/12/17 06:08:34;;;;;;;20.75;11.77;;;2.80;99.90;;;;;;5026009;28;20032;-74
2020/12/17 06:11:03;;;;;;;23.65;11.93;;;2.90;99.90;;;;;;5031949;28;20555;-74
2020/12/17 06:13:33;;;;;;;21.58;10.75;;;2.90;99.90;;;;;;5034426;28;20028;-74
2020/12/17 06:16:04;;;;;;;11.48;5.15;;;2.90;99.90;;;;;;5036113;28;20033;-74
2020/12/17 06:18:54;;;;;;;16.83;10.00;;;3.20;99.90;;;;;;5034844;28;20483;-74
2020/12/17 06:21:21;;;;;;;18.55;8.90;;;3.20;99.90;;;;;;5028876;28;20092;-74
2020/12/17 06:23:54;;;;;;;17.35;9.57;;;3.30;99.90;;;;;;5034660;28;20029;-74
2020/12/17 06:26:19;;;;;;;;;;;3.30;99.90;;;;;;5042849;28;20044;-74
2020/12/17 06:28:47;;;;;;;20.65;11.30;;;3.30;99.90;;;;;;5024213;28;19909;-74
2020/12/17 06:31:26;;;;;;;19.25;10.75;;;3.30;99.90;;;;;;5033333;28;20041;-67
2020/12/17 06:34:02;;;;;;;24.83;13.30;;;3.30;99.90;;;;;;5032108;28;20506;-74
2020/12/17 06:36:41;;;;;;;26.38;12.70;;;3.30;99.90;;;;;;5042082;28;20098;-67
2020/12/17 06:39:07;;;;;;;20.00;12.60;;;3.40;99.90;;;;;;5035347;28;20542;-67
2020/12/17 06:41:33;;;;;;;24.92;13.45;;;3.30;99.90;;;;;;5033285;28;20033;-75
2020/12/17 06:43:59;;;;;;;23.58;12.32;;;3.30;99.90;;;;;;5033612;28;20072;-75
2020/12/17 06:46:34;;;;;;;17.02;7.80;;;3.40;99.90;;;;;;5030067;28;20068;-76
2020/12/17 06:49:02;;;;;;;17.27;7.15;;;3.40;99.90;;;;;;5038064;28;20574;-70
2020/12/17 06:51:35;;;;;;;12.25;5.95;;;3.50;99.90;;;;;;5042934;28;20056;-77
2020/12/17 06:54:03;;;;;;;15.98;7.40;;;3.60;99.90;;;;;;5039570;28;20029;-70
2020/12/17 06:56:29;;;;;;;16.77;7.57;;;3.70;99.90;;;;;;5043221;28;20064;-76
2020/12/17 06:59:13;;;;;;;13.27;7.97;;;3.70;99.90;;;;;;5037043;28;20026;-77
2020/12/17 07:01:39;;;;;;;14.18;7.88;;;3.80;99.90;;;;;;5040247;28;20263;-76
2020/12/17 07:04:04;;;;;;;12.07;6.88;;;3.80;99.90;;;;;;5043169;28;20040;-76
2020/12/17 07:06:30;;;;;;;14.07;7.55;;;3.80;99.90;;;;;;5044472;28;20438;-76
2020/12/17 07:08:57;;;;;;;12.32;6.47;;;3.80;99.90;;;;;;5043753;28;20062;-77
2020/12/17 07:11:45;;;;;;;11.25;5.90;;;3.80;99.90;;;;;;5040876;28;20065;-70
2020/12/17 07:14:25;;;;;;;12.90;5.30;;;3.90;99.90;;;;;;5034985;28;20029;-77
2020/12/17 07:16:59;;;;;;;12.23;5.30;;;4.00;99.90;;;;;;5044678;28;20576;-76
2020/12/17 07:19:44;;;;;;;12.60;6.00;;;4.00;99.90;;;;;;5031596;28;20500;-70
2020/12/17 07:22:15;;;;;;;9.10;4.35;;;4.10;99.90;;;;;;5036419;28;20039;-70
2020/12/17 07:24:45;;;;;;;6.63;2.75;;;4.10;99.90;;;;;;5031846;28;20057;-76
2020/12/17 07:27:38;;;;;;;6.70;2.70;;;4.30;99.90;;;;;;5035233;28;20036;-77
2020/12/17 07:30:06;;;;;;;13.98;4.22;;;4.40;99.90;;;;;;5035906;28;20479;-76
2020/12/17 07:32:44;;;;;;;13.77;4.68;;;4.40;99.90;;;;;;5034084;28;20037;-77
2020/12/17 07:35:10;;;;;;;16.67;8.00;;;4.40;99.90;;;;;;5038285;28;20055;-76
2020/12/17 07:37:46;;;;;;;13.77;6.13;;;4.50;99.90;;;;;;5032855;28;20033;-77
2020/12/17 07:40:12;;;;;;;11.13;5.88;;;4.40;99.90;;;;;;5042022;28;20048;-77
2020/12/17 07:42:38;;;;;;;6.35;2.90;;;4.50;99.90;;;;;;5044551;28;20127;-77
2020/12/17 07:45:04;;;;;;;9.82;3.70;;;4.50;99.90;;;;;;5039491;28;20065;-70
2020/12/17 07:47:30;;;;;;;9.90;4.78;;;4.50;99.90;;;;;;5040156;28;20032;-76
2020/12/17 07:49:57;;;;;;;12.07;6.10;;;4.60;99.90;;;;;;5037718;28;20026;-70
2020/12/17 07:52:33;;;;;;;11.35;6.40;;;4.60;99.90;;;;;;5042369;28;20510;-77
2020/12/17 07:55:00;;;;;;;13.70;6.68;;;4.60;99.90;;;;;;5038450;28;20399;-76
2020/12/17 07:57:26;;;;;;;11.55;6.03;;;4.60;99.90;;;;;;5041160;28;20389;-77
2020/12/17 07:59:52;;;;;;;14.73;5.57;;;4.50;99.90;;;;;;5040045;28;20476;-76
2020/12/17 08:02:18;;;;;;;12.25;6.13;;;4.60;99.90;;;;;;5036338;28;20041;-76
2020/12/17 08:04:53;;;;;;;12.50;6.25;;;4.60;99.90;;;;;;5038235;28;20048;-77
2020/12/17 08:07:20;;;;;;;10.80;4.50;;;4.60;99.90;;;;;;5036538;28;20066;-70
2020/12/17 08:10:06;;;;;;;11.35;5.57;;;4.50;99.90;;;;;;5030969;28;20063;-71
2020/12/17 08:12:31;;;;;;;9.50;5.03;;;4.70;99.90;;;;;;5045028;28;20324;-77
2020/12/17 08:15:07;;;;;;;10.95;4.30;;;4.70;99.90;;;;;;5039652;28;20048;-77
2020/12/17 08:17:33;;;;;;;12.40;5.40;;;4.70;99.90;;;;;;5034424;28;20472;-77
2020/12/17 08:19:58;;;;;;;14.02;7.28;;;4.80;99.90;;;;;;5042982;28;20025;-70
2020/12/17 08:22:28;;;;;;;14.45;7.75;;;4.80;99.90;;;;;;5038799;28;20077;-77
2020/12/17 08:24:54;;;;;;;9.52;3.78;;;4.80;99.90;;;;;;5042397;28;20071;-70
2020/12/17 08:27:23;;;;;;;6.15;2.13;;;5.00;99.90;;;;;;5038031;28;20076;-77
2020/12/17 08:29:49;;;;;;;6.00;1.77;;;5.00;99.90;;;;;;5042647;28;20036;-77
2020/12/17 08:32:15;;;;;;;8.38;2.95;;;5.20;99.90;;;;;;5044576;28;20033;-77
2020/12/17 08:34:56;;;;;;;8.70;3.47;;;5.30;99.90;;;;;;5043293;28;20524;-77
2020/12/17 08:37:23;;;;;;;11.20;4.85;;;5.50;99.90;;;;;;5037069;28;20514;-77
2020/12/17 08:40:05;;;;;;;15.70;7.28;;;5.50;99.90;;;;;;5042474;28;20029;-77
2020/12/17 08:42:35;;;;;;;11.63;6.57;;;5.50;99.90;;;;;;5039042;28;20064;-77
2020/12/17 08:45:10;;;;;;;15.85;7.63;;;5.40;99.90;;;;;;5032640;28;20435;-77
2020/12/17 08:47:42;;;;;;;16.63;9.20;;;5.40;99.90;;;;;;5041644;28;20021;-70
2020/12/17 08:50:09;;;;;;;17.55;8.70;;;5.50;99.90;;;;;;5043096;28;20067;-77
2020/12/17 08:52:35;;;;;;;11.00;6.70;;;5.40;99.90;;;;;;5047004;28;20059;-70
2020/12/17 08:55:08;;;;;;;18.05;8.52;;;5.40;99.90;;;;;;5043219;28;20032;-77
2020/12/17 08:57:34;;;;;;;18.08;10.02;;;5.50;99.90;;;;;;5036416;28;20039;-77
2020/12/17 08:59:59;;;;;;;22.05;11.40;;;5.50;99.90;;;;;;5035817;28;20037;-77
2020/12/17 09:02:26;;;;;;;23.90;14.05;;;5.50;99.90;;;;;;5041273;28;20052;-77
2020/12/17 09:05:00;;;;;;;20.00;12.32;;;5.50;99.90;;;;;;5045585;28;20040;-77
2020/12/17 09:07:27;;;;;;;19.75;11.75;;;5.60;99.90;;;;;;5039523;28;20065;-70
2020/12/17 09:09:52;;;;;;;21.88;12.93;;;5.70;99.90;;;;;;5046341;28;20033;-77
2020/12/17 09:12:27;;;;;;;18.33;10.15;;;5.70;99.90;;;;;;5042091;28;20083;-71
2020/12/17 09:14:53;;;;;;;16.75;8.88;;;5.70;99.90;;;;;;5046427;28;20033;-77
2020/12/17 09:17:19;;;;;;;19.02;9.90;;;5.80;99.90;;;;;;5044307;28;20686;-77
2020/12/17 09:19:47;;;;;;;14.85;7.18;;;5.80;99.90;;;;;;5045457;28;20021;-71
2020/12/17 09:22:15;;;;;;;12.02;5.93;;;5.90;99.90;;;;;;5037099;28;20075;-77
2020/12/17 09:24:47;;;;;;;13.02;5.88;;;6.00;99.90;;;;;;5037151;28;20033;-70
2020/12/17 09:27:21;;;;;;;11.98;5.18;;;6.00;99.90;;;;;;5042573;28;20448;-77
2020/12/17 09:30:14;;;;;;;15.93;6.78;;;6.00;99.90;;;;;;5039285;28;20025;-71
2020/12/17 09:32:40;;;;;;;;;;;6.10;99.90;;;;;;5040732;28;20482;-77
2020/12/17 09:35:13;;;;;;;16.67;7.00;;;6.20;99.90;;;;;;5040956;28;19919;-77
2020/12/17 09:37:41;;;;;;;17.10;8.00;;;6.20;99.90;;;;;;5035555;28;20042;-77
2020/12/17 09:40:09;;;;;;;12.18;6.82;;;6.20;99.90;;;;;;5034914;28;20309;-77
2020/12/17 09:42:34;;;;;;;14.10;7.85;;;6.20;99.90;;;;;;5035991;28;20535;-71
2020/12/17 09:45:17;;;;;;;17.83;7.90;;;6.30;99.90;;;;;;5041618;28;20184;-77
2020/12/17 09:47:44;;;;;;;14.45;7.63;;;6.30;99.90;;;;;;5043476;28;20112;-77
2020/12/17 09:50:15;;;;;;;17.38;7.85;;;6.40;99.90;;;;;;5040985;28;20020;-77
2020/12/17 09:52:41;;;;;;;15.23;7.07;;;6.50;99.90;;;;;;5034537;28;20092;-77
2020/12/17 09:55:07;;;;;;;19.55;9.13;;;6.50;99.90;;;;;;5041315;28;20026;-76
2020/12/17 09:57:38;;;;;;;15.88;8.48;;;6.60;99.90;;;;;;5035496;28;20029;-77
2020/12/17 10:00:05;;;;;;;12.90;7.20;;;6.60;99.90;;;;;;5037697;28;20029;-71
2020/12/17 10:02:31;;;;;;;15.77;5.70;;;6.60;99.90;;;;;;5041661;28;20040;-77
2020/12/17 10:04:57;;;;;;;15.38;5.50;;;6.60;99.90;;;;;;5040993;28;20029;-77
2020/12/17 10:07:22;;;;;;;14.38;5.20;;;6.70;99.90;;;;;;5044041;28;20047;-77
2020/12/17 10:09:48;;;;;;;12.40;5.32;;;6.70;99.90;;;;;;5030731;28;20041;-77
2020/12/17 10:12:13;;;;;;;11.05;4.82;;;6.70;99.90;;;;;;5039724;28;20057;-71
2020/12/17 10:14:39;;;;;;;12.68;4.80;;;6.80;99.90;;;;;;5036388;28;20094;-77
2020/12/17 10:17:05;;;;;;;11.45;4.75;;;6.70;99.90;;;;;;5040458;28;20043;-77
2020/12/17 10:19:30;;;;;;;11.60;4.90;;;6.70;99.90;;;;;;5036641;28;20298;-77
2020/12/17 10:21:59;;;;;;;9.82;3.90;;;6.80;99.90;;;;;;5043081;28;20052;-71
2020/12/17 10:24:25;;;;;;;11.85;4.80;;;6.80;99.90;;;;;;5041627;28;20593;-77
2020/12/17 10:26:52;;;;;;;12.68;4.10;;;6.80;99.90;;;;;;5041437;28;20033;-77
2020/12/17 10:29:17;;;;;;;10.73;4.70;;;6.80;99.90;;;;;;5041159;28;20035;-77
2020/12/17 10:31:46;;;;;;;10.60;4.57;;;6.80;99.90;;;;;;5040752;28;20476;-77
2020/12/17 10:34:11;;;;;;;10.95;5.07;;;6.80;99.90;;;;;;5035884;28;20606;-71
2020/12/17 10:36:40;;;;;;;12.27;5.13;;;6.90;99.90;;;;;;5039163;28;20033;-77
2020/12/17 10:39:07;;;;;;;12.48;5.57;;;6.90;99.90;;;;;;5039273;28;20033;-77
2020/12/17 10:41:34;;;;;;;17.27;5.68;;;6.90;99.90;;;;;;5043613;28;20037;-77
2020/12/17 10:44:00;;;;;;;14.18;6.05;;;6.90;99.90;;;;;;5032044;28;20067;-78
2020/12/17 10:46:25;;;;;;;16.80;6.43;;;7.00;99.90;;;;;;5044465;28;20029;-77
2020/12/17 10:48:51;;;;;;;14.25;4.75;;;6.90;99.90;;;;;;5041124;28;20466;-77
2020/12/17 10:51:17;;;;;;;11.65;4.75;;;7.00;99.90;;;;;;5037566;28;20041;-78
2020/12/17 10:53:43;;;;;;;9.52;5.25;;;6.90;99.90;;;;;;5038160;28;20033;-77
2020/12/17 10:56:10;;;;;;;10.60;5.53;;;7.00;99.90;;;;;;5039325;28;20078;-77
2020/12/17 10:58:40;;;;;;;10.98;4.18;;;7.10;99.90;;;;;;5043045;28;20264;-77
2020/12/17 11:01:06;;;;;;;11.10;4.63;;;7.10;99.90;;;;;;5034557;28;20048;-77
2020/12/17 11:03:31;;;;;;;12.00;5.28;;;7.20;99.90;;;;;;5035282;28;20137;-77
2020/12/17 11:05:57;;;;;;;15.52;5.00;;;7.20;99.90;;;;;;5042271;28;20041;-77
2020/12/17 11:08:24;;;;;;;11.40;5.30;;;7.20;99.90;;;;;;5042488;28;20100;-77
2020/12/17 11:10:50;;;;;;;15.38;5.90;;;7.20;99.90;;;;;;5044447;28;20462;-77
2020/12/17 11:13:16;;;;;;;15.98;6.13;;;7.20;99.90;;;;;;5038772;28;20029;-71
2020/12/17 11:15:45;;;;;;;12.20;5.32;;;7.30;99.90;;;;;;5033512;28;20033;-71
2020/12/17 11:18:13;;;;;;;10.88;5.43;;;7.40;99.90;;;;;;5037449;28;20036;-77
2020/12/17 11:20:40;;;;;;;13.00;5.55;;;7.40;99.90;;;;;;5038990;28;20340;-77
2020/12/17 11:23:06;;;;;;;12.48;5.72;;;7.50;99.90;;;;;;5039423;28;21189;-77
2020/12/17 11:25:36;;;;;;;14.57;5.57;;;7.50;99.90;;;;;;5042684;28;20047;-77
2020/12/17 11:28:05;;;;;;;11.57;5.63;;;7.50;99.90;;;;;;5034430;28;20079;-78
2020/12/17 11:30:33;;;;;;;15.98;7.28;;;7.50;99.90;;;;;;5033178;28;20096;-71
2020/12/17 11:32:59;;;;;;;12.63;5.38;;;7.60;99.90;;;;;;5042058;28;20029;-77
2020/12/17 11:35:25;;;;;;;12.50;5.20;;;7.60;99.90;;;;;;5031437;28;20038;-77
2020/12/17 11:37:51;;;;;;;12.13;4.95;;;7.60;99.90;;;;;;5044458;28;20039;-77
2020/12/17 11:40:21;;;;;;;14.40;5.78;;;7.70;99.90;;;;;;5040304;28;20116;-77
2020/12/17 11:42:47;;;;;;;10.63;6.10;;;7.70;99.90;;;;;;5038041;28;20064;-77
2020/12/17 11:45:13;;;;;;;17.35;6.18;;;7.60;99.90;;;;;;5038077;28;20029;-71
2020/12/17 11:47:39;;;;;;;12.40;5.43;;;7.60;99.90;;;;;;5047794;28;20028;-77
2020/12/17 11:50:06;;;;;;;16.20;7.45;;;7.50;99.90;;;;;;5043960;28;20348;-77
2020/12/17 11:52:35;;;;;;;19.55;6.45;;;7.60;99.90;;;;;;5039582;28;20052;-77
2020/12/17 11:55:02;;;;;;;17.65;7.15;;;7.60;99.90;;;;;;5033821;28;20406;-77
2020/12/17 11:57:28;;;;;;;17.92;7.72;;;7.60;99.90;;;;;;5037715;28;20030;-76
2020/12/17 11:59:53;;;;;;;15.10;7.65;;;7.70;99.90;;;;;;5042677;28;20025;-77
2020/12/17 12:02:19;;;;;;;17.85;7.95;;;7.70;99.90;;;;;;5045101;28;20049;-77
2020/12/17 12:04:44;;;;;;;17.23;7.60;;;7.70;99.90;;;;;;5032197;28;20090;-77
2020/12/17 12:07:10;;;;;;;16.35;7.75;;;7.80;99.90;;;;;;5048249;28;20546;-77
2020/12/17 12:09:36;;;;;;;18.33;7.82;;;7.80;99.90;;;;;;5046795;28;20037;-77
2020/12/17 12:12:01;;;;;;;15.88;7.05;;;7.90;99.90;;;;;;5040088;28;20515;-77
2020/12/17 12:14:27;;;;;;;15.20;7.05;;;8.00;99.90;;;;;;5044858;28;20063;-75
2020/12/17 12:16:52;;;;;;;14.30;7.07;;;8.00;99.90;;;;;;5037428;28;20472;-71
2020/12/17 12:19:18;;;;;;;13.10;6.88;;;8.00;99.90;;;;;;5042996;28;20064;-77
2020/12/17 12:21:53;;;;;;;15.23;6.78;;;7.90;99.90;;;;;;5048921;28;20136;-77
2020/12/17 12:24:19;;;;;;;15.88;6.50;;;7.90;99.90;;;;;;5042643;28;20040;-77
2020/12/17 12:26:45;;;;;;;12.23;5.75;;;8.00;99.90;;;;;;5037372;28;20030;-77
2020/12/17 12:29:10;;;;;;;14.45;6.80;;;8.00;99.90;;;;;;5042048;28;20391;-77
2020/12/17 12:31:36;;;;;;;16.35;7.38;;;8.00;99.90;;;;;;5042388;28;20566;-77
2020/12/17 12:34:03;;;;;;;16.48;7.15;;;8.10;99.90;;;;;;5038917;28;20061;-77
2020/12/17 12:36:29;;;;;;;21.15;7.30;;;8.20;99.90;;;;;;5040528;28;20033;-77
2020/12/17 12:38:55;;;;;;;13.43;6.18;;;8.30;99.90;;;;;;5030783;28;20044;-78
2020/12/17 12:41:21;;;;;;;12.93;6.15;;;8.30;99.90;;;;;;5039179;28;20467;-78
2020/12/17 12:43:46;;;;;;;14.05;6.07;;;8.30;99.90;;;;;;5036143;28;21024;-77
2020/12/17 12:46:16;;;;;;;13.68;5.95;;;8.30;99.90;;;;;;5043731;28;20155;-78